sensor_id;sensor_type;location;lat;lon;timestamp;P1;durP1;ratioP1;P2;durP2;ratioP2
19205;SDS011;59358;52.134;5.596;2023-04-03T00:00:42;4.13;;;1.88;;
19205;SDS011;59358;52.134;5.596;2023-04-03T00:03:10;5.25;;;1.60;;
19205;SDS011;59358;52.134;5.596;2023-04-03T00:05:37;4.65;;;2.05;;
19205;SDS011;59358;52.134;5.596;2023-04-03T00:08:03;3.78;;;2.10;;
19205;SDS011;59358;52.134;5.596;2023-04-03T00:10:32;5.15;;;1.90;;
19205;SDS011;59358;52.134;5.596;2023-04-03T00:12:59;3.50;;;2.30;;
19205;SDS011;59358;52.134;5.596;2023-04-03T00:15:26;4.53;;;1.92;;
19205;SDS011;59358;52.134;5.596;2023-04-03T00:17:53;3.58;;;2.05;;
19205;SDS011;59358;52.134;5.596;2023-04-03T00:20:21;3.45;;;1.63;;
19205;SDS011;59358;52.134;5.596;2023-04-03T00:22:48;2.42;;;1.50;;
19205;SDS011;59358;52.134;5.596;2023-04-03T00:25:15;4.15;;;2.03;;
19205;SDS011;59358;52.134;5.596;2023-04-03T00:27:42;2.25;;;1.60;;
19205;SDS011;59358;52.134;5.596;2023-04-03T00:30:09;3.42;;;1.88;;
19205;SDS011;59358;52.134;5.596;2023-04-03T00:32:40;2.65;;;1.98;;
19205;SDS011;59358;52.134;5.596;2023-04-03T00:35:07;2.95;;;2.13;;
19205;SDS011;59358;52.134;5.596;2023-04-03T00:37:36;2.15;;;1.70;;
19205;SDS011;59358;52.134;5.596;2023-04-03T00:40:03;2.45;;;1.70;;
19205;SDS011;59358;52.134;5.596;2023-04-03T00:42:31;5.00;;;2.22;;
19205;SDS011;59358;52.134;5.596;2023-04-03T00:48:00;7.00;;;2.10;;
19205;SDS011;59358;52.134;5.596;2023-04-03T00:50:30;3.20;;;1.73;;
19205;SDS011;59358;52.134;5.596;2023-04-03T00:53:01;3.90;;;2.00;;
19205;SDS011;59358;52.134;5.596;2023-04-03T00:55:30;4.25;;;2.30;;
19205;SDS011;59358;52.134;5.596;2023-04-03T00:57:58;4.78;;;2.13;;
19205;SDS011;59358;52.134;5.596;2023-04-03T01:00:26;5.40;;;2.08;;
19205;SDS011;59358;52.134;5.596;2023-04-03T01:02:53;7.97;;;2.38;;
19205;SDS011;59358;52.134;5.596;2023-04-03T01:05:20;6.35;;;2.30;;
19205;SDS011;59358;52.134;5.596;2023-04-03T01:07:48;4.50;;;2.22;;
19205;SDS011;59358;52.134;5.596;2023-04-03T01:10:19;3.47;;;1.67;;
19205;SDS011;59358;52.134;5.596;2023-04-03T01:12:46;9.90;;;2.22;;
19205;SDS011;59358;52.134;5.596;2023-04-03T01:15:16;5.45;;;2.47;;
19205;SDS011;59358;52.134;5.596;2023-04-03T01:17:45;4.68;;;1.85;;
19205;SDS011;59358;52.134;5.596;2023-04-03T01:23:17;5.32;;;2.13;;
19205;SDS011;59358;52.134;5.596;2023-04-03T01:26:02;6.38;;;2.40;;
19205;SDS011;59358;52.134;5.596;2023-04-03T01:28:32;4.60;;;2.30;;
19205;SDS011;59358;52.134;5.596;2023-04-03T01:31:02;7.43;;;2.17;;
19205;SDS011;59358;52.134;5.596;2023-04-03T01:33:38;4.85;;;2.20;;
19205;SDS011;59358;52.134;5.596;2023-04-03T01:36:05;4.68;;;2.70;;
19205;SDS011;59358;52.134;5.596;2023-04-03T01:38:32;5.65;;;2.25;;
19205;SDS011;59358;52.134;5.596;2023-04-03T01:40:59;8.60;;;2.65;;
19205;SDS011;59358;52.134;5.596;2023-04-03T01:43:26;8.02;;;2.50;;
19205;SDS011;59358;52.134;5.596;2023-04-03T01:45:53;4.60;;;2.05;;
19205;SDS011;59358;52.134;5.596;2023-04-03T01:48:20;5.32;;;2.15;;
19205;SDS011;59358;52.134;5.596;2023-04-03T01:50:49;7.63;;;2.40;;
19205;SDS011;59358;52.134;5.596;2023-04-03T01:53:16;4.88;;;2.50;;
19205;SDS011;59358;52.134;5.596;2023-04-03T01:55:42;5.15;;;2.25;;
19205;SDS011;59358;52.134;5.596;2023-04-03T01:58:09;5.32;;;2.40;;
19205;SDS011;59358;52.134;5.596;2023-04-03T02:00:36;4.55;;;2.55;;
19205;SDS011;59358;52.134;5.596;2023-04-03T02:03:03;7.57;;;2.50;;
19205;SDS011;59358;52.134;5.596;2023-04-03T02:05:30;6.47;;;2.15;;
19205;SDS011;59358;52.134;5.596;2023-04-03T02:07:58;5.18;;;2.28;;
19205;SDS011;59358;52.134;5.596;2023-04-03T02:10:25;5.10;;;2.42;;
19205;SDS011;59358;52.134;5.596;2023-04-03T02:12:52;5.25;;;2.67;;
19205;SDS011;59358;52.134;5.596;2023-04-03T02:15:19;4.65;;;2.67;;
19205;SDS011;59358;52.134;5.596;2023-04-03T02:17:45;5.43;;;2.55;;
19205;SDS011;59358;52.134;5.596;2023-04-03T02:20:12;3.25;;;1.98;;
19205;SDS011;59358;52.134;5.596;2023-04-03T02:22:39;6.80;;;2.58;;
19205;SDS011;59358;52.134;5.596;2023-04-03T02:25:08;6.90;;;2.80;;
19205;SDS011;59358;52.134;5.596;2023-04-03T02:27:35;5.50;;;2.92;;
19205;SDS011;59358;52.134;5.596;2023-04-03T02:30:02;9.18;;;2.47;;
19205;SDS011;59358;52.134;5.596;2023-04-03T02:32:30;5.15;;;2.22;;
19205;SDS011;59358;52.134;5.596;2023-04-03T02:34:57;6.85;;;2.38;;
19205;SDS011;59358;52.134;5.596;2023-04-03T02:37:24;5.78;;;2.85;;
19205;SDS011;59358;52.134;5.596;2023-04-03T02:39:50;7.85;;;3.08;;
19205;SDS011;59358;52.134;5.596;2023-04-03T02:42:18;5.85;;;2.22;;
19205;SDS011;59358;52.134;5.596;2023-04-03T02:44:45;9.18;;;2.65;;
19205;SDS011;59358;52.134;5.596;2023-04-03T02:47:15;5.40;;;2.55;;
19205;SDS011;59358;52.134;5.596;2023-04-03T02:49:42;6.15;;;3.00;;
19205;SDS011;59358;52.134;5.596;2023-04-03T02:52:10;5.80;;;2.72;;
19205;SDS011;59358;52.134;5.596;2023-04-03T02:54:37;5.80;;;2.75;;
19205;SDS011;59358;52.134;5.596;2023-04-03T02:57:03;6.43;;;2.70;;
19205;SDS011;59358;52.134;5.596;2023-04-03T02:59:31;5.50;;;2.40;;
19205;SDS011;59358;52.134;5.596;2023-04-03T03:01:58;9.43;;;3.10;;
19205;SDS011;59358;52.134;5.596;2023-04-03T03:04:25;6.55;;;2.92;;
19205;SDS011;59358;52.134;5.596;2023-04-03T03:06:52;8.75;;;3.13;;
19205;SDS011;59358;52.134;5.596;2023-04-03T03:09:19;6.95;;;2.60;;
19205;SDS011;59358;52.134;5.596;2023-04-03T03:11:45;7.18;;;3.42;;
19205;SDS011;59358;52.134;5.596;2023-04-03T03:14:12;8.75;;;2.85;;
19205;SDS011;59358;52.134;5.596;2023-04-03T03:16:40;6.57;;;2.60;;
19205;SDS011;59358;52.134;5.596;2023-04-03T03:19:07;5.43;;;2.80;;
19205;SDS011;59358;52.134;5.596;2023-04-03T03:21:34;11.05;;;2.95;;
19205;SDS011;59358;52.134;5.596;2023-04-03T03:24:01;9.00;;;3.90;;
19205;SDS011;59358;52.134;5.596;2023-04-03T03:26:27;7.25;;;3.80;;
19205;SDS011;59358;52.134;5.596;2023-04-03T03:28:55;11.18;;;4.60;;
19205;SDS011;59358;52.134;5.596;2023-04-03T03:31:22;13.18;;;4.30;;
19205;SDS011;59358;52.134;5.596;2023-04-03T03:33:50;9.73;;;5.45;;
19205;SDS011;59358;52.134;5.596;2023-04-03T03:36:17;5.47;;;3.10;;
19205;SDS011;59358;52.134;5.596;2023-04-03T03:38:43;8.40;;;3.78;;
19205;SDS011;59358;52.134;5.596;2023-04-03T03:41:10;6.22;;;3.20;;
19205;SDS011;59358;52.134;5.596;2023-04-03T03:43:37;6.32;;;3.30;;
19205;SDS011;59358;52.134;5.596;2023-04-03T03:46:04;7.07;;;3.42;;
19205;SDS011;59358;52.134;5.596;2023-04-03T03:48:31;11.75;;;4.50;;
19205;SDS011;59358;52.134;5.596;2023-04-03T03:50:59;6.18;;;4.15;;
19205;SDS011;59358;52.134;5.596;2023-04-03T03:53:26;12.35;;;4.18;;
19205;SDS011;59358;52.134;5.596;2023-04-03T03:55:53;8.02;;;4.10;;
19205;SDS011;59358;52.134;5.596;2023-04-03T03:58:20;10.27;;;4.10;;
19205;SDS011;59358;52.134;5.596;2023-04-03T04:00:46;8.93;;;4.50;;
19205;SDS011;59358;52.134;5.596;2023-04-03T04:03:13;11.80;;;4.22;;
19205;SDS011;59358;52.134;5.596;2023-04-03T04:05:40;6.97;;;3.70;;
19205;SDS011;59358;52.134;5.596;2023-04-03T04:08:08;10.75;;;4.75;;
19205;SDS011;59358;52.134;5.596;2023-04-03T04:10:35;7.72;;;4.53;;
19205;SDS011;59358;52.134;5.596;2023-04-03T04:13:04;9.73;;;3.47;;
19205;SDS011;59358;52.134;5.596;2023-04-03T04:15:30;8.80;;;4.07;;
19205;SDS011;59358;52.134;5.596;2023-04-03T04:17:57;6.95;;;3.90;;
19205;SDS011;59358;52.134;5.596;2023-04-03T04:20:24;11.25;;;4.30;;
19205;SDS011;59358;52.134;5.596;2023-04-03T04:22:51;17.13;;;4.75;;
19205;SDS011;59358;52.134;5.596;2023-04-03T04:25:19;10.75;;;4.10;;
19205;SDS011;59358;52.134;5.596;2023-04-03T04:27:46;14.38;;;4.10;;
19205;SDS011;59358;52.134;5.596;2023-04-03T04:30:13;11.70;;;5.00;;
19205;SDS011;59358;52.134;5.596;2023-04-03T04:32:40;7.88;;;4.35;;
19205;SDS011;59358;52.134;5.596;2023-04-03T04:35:07;12.13;;;3.92;;
19205;SDS011;59358;52.134;5.596;2023-04-03T04:37:34;7.60;;;4.35;;
19205;SDS011;59358;52.134;5.596;2023-04-03T04:40:01;8.10;;;4.05;;
19205;SDS011;59358;52.134;5.596;2023-04-03T04:42:29;14.40;;;4.20;;
19205;SDS011;59358;52.134;5.596;2023-04-03T04:44:56;7.15;;;3.50;;
19205;SDS011;59358;52.134;5.596;2023-04-03T04:47:23;8.45;;;4.15;;
19205;SDS011;59358;52.134;5.596;2023-04-03T04:49:50;8.85;;;3.92;;
19205;SDS011;59358;52.134;5.596;2023-04-03T04:52:17;8.23;;;4.05;;
19205;SDS011;59358;52.134;5.596;2023-04-03T04:54:44;8.48;;;4.00;;
19205;SDS011;59358;52.134;5.596;2023-04-03T04:57:11;11.00;;;4.20;;
19205;SDS011;59358;52.134;5.596;2023-04-03T04:59:40;9.85;;;4.95;;
19205;SDS011;59358;52.134;5.596;2023-04-03T05:02:06;8.35;;;3.65;;
19205;SDS011;59358;52.134;5.596;2023-04-03T05:04:33;7.28;;;3.90;;
19205;SDS011;59358;52.134;5.596;2023-04-03T05:07:00;6.38;;;4.53;;
19205;SDS011;59358;52.134;5.596;2023-04-03T05:09:27;14.60;;;4.90;;
19205;SDS011;59358;52.134;5.596;2023-04-03T05:11:54;12.38;;;4.38;;
19205;SDS011;59358;52.134;5.596;2023-04-03T05:14:21;13.32;;;3.95;;
19205;SDS011;59358;52.134;5.596;2023-04-03T05:16:49;10.27;;;3.90;;
19205;SDS011;59358;52.134;5.596;2023-04-03T05:19:18;9.40;;;4.30;;
19205;SDS011;59358;52.134;5.596;2023-04-03T05:21:45;10.23;;;3.83;;
19205;SDS011;59358;52.134;5.596;2023-04-03T05:24:13;9.60;;;4.10;;
19205;SDS011;59358;52.134;5.596;2023-04-03T05:26:41;11.10;;;4.03;;
19205;SDS011;59358;52.134;5.596;2023-04-03T05:29:08;12.55;;;4.60;;
19205;SDS011;59358;52.134;5.596;2023-04-03T05:31:34;11.00;;;4.30;;
19205;SDS011;59358;52.134;5.596;2023-04-03T05:34:03;9.85;;;3.90;;
19205;SDS011;59358;52.134;5.596;2023-04-03T05:36:29;13.07;;;4.18;;
19205;SDS011;59358;52.134;5.596;2023-04-03T05:38:56;13.32;;;4.43;;
19205;SDS011;59358;52.134;5.596;2023-04-03T05:41:23;9.52;;;4.10;;
19205;SDS011;59358;52.134;5.596;2023-04-03T05:43:50;11.32;;;4.28;;
19205;SDS011;59358;52.134;5.596;2023-04-03T05:46:18;9.50;;;3.95;;
19205;SDS011;59358;52.134;5.596;2023-04-03T05:48:45;7.13;;;3.70;;
19205;SDS011;59358;52.134;5.596;2023-04-03T05:51:15;10.57;;;4.55;;
19205;SDS011;59358;52.134;5.596;2023-04-03T05:53:43;12.95;;;3.70;;
19205;SDS011;59358;52.134;5.596;2023-04-03T05:56:11;8.13;;;4.13;;
19205;SDS011;59358;52.134;5.596;2023-04-03T05:58:38;12.70;;;4.13;;
19205;SDS011;59358;52.134;5.596;2023-04-03T06:01:05;8.15;;;4.30;;
19205;SDS011;59358;52.134;5.596;2023-04-03T06:03:32;11.75;;;4.85;;
19205;SDS011;59358;52.134;5.596;2023-04-03T06:06:02;9.80;;;4.55;;
19205;SDS011;59358;52.134;5.596;2023-04-03T06:08:31;11.85;;;4.70;;
19205;SDS011;59358;52.134;5.596;2023-04-03T06:10:58;12.73;;;4.32;;
19205;SDS011;59358;52.134;5.596;2023-04-03T06:13:27;11.40;;;5.25;;
19205;SDS011;59358;52.134;5.596;2023-04-03T06:15:54;10.25;;;3.80;;
19205;SDS011;59358;52.134;5.596;2023-04-03T06:18:21;15.15;;;3.42;;
19205;SDS011;59358;52.134;5.596;2023-04-03T06:20:48;13.45;;;4.10;;
19205;SDS011;59358;52.134;5.596;2023-04-03T06:23:15;12.00;;;4.07;;
19205;SDS011;59358;52.134;5.596;2023-04-03T06:25:43;9.73;;;3.42;;
19205;SDS011;59358;52.134;5.596;2023-04-03T06:28:11;14.23;;;5.13;;
19205;SDS011;59358;52.134;5.596;2023-04-03T06:30:38;8.05;;;2.88;;
19205;SDS011;59358;52.134;5.596;2023-04-03T06:33:05;9.85;;;3.17;;
19205;SDS011;59358;52.134;5.596;2023-04-03T06:35:31;7.68;;;3.40;;
19205;SDS011;59358;52.134;5.596;2023-04-03T06:38:00;7.78;;;3.10;;
19205;SDS011;59358;52.134;5.596;2023-04-03T06:40:29;11.23;;;3.60;;
19205;SDS011;59358;52.134;5.596;2023-04-03T06:42:57;17.23;;;4.07;;
19205;SDS011;59358;52.134;5.596;2023-04-03T06:45:25;8.57;;;2.92;;
19205;SDS011;59358;52.134;5.596;2023-04-03T06:47:52;6.70;;;3.13;;
19205;SDS011;59358;52.134;5.596;2023-04-03T06:50:19;5.90;;;2.80;;
19205;SDS011;59358;52.134;5.596;2023-04-03T06:52:46;5.63;;;2.80;;
19205;SDS011;59358;52.134;5.596;2023-04-03T06:55:13;3.83;;;2.70;;
19205;SDS011;59358;52.134;5.596;2023-04-03T06:57:40;7.50;;;3.00;;
19205;SDS011;59358;52.134;5.596;2023-04-03T07:00:08;7.30;;;3.50;;
19205;SDS011;59358;52.134;5.596;2023-04-03T07:02:37;8.98;;;2.92;;
19205;SDS011;59358;52.134;5.596;2023-04-03T07:05:04;10.95;;;3.35;;
19205;SDS011;59358;52.134;5.596;2023-04-03T07:07:31;9.27;;;3.13;;
19205;SDS011;59358;52.134;5.596;2023-04-03T07:10:00;10.35;;;2.90;;
19205;SDS011;59358;52.134;5.596;2023-04-03T07:12:27;12.32;;;3.35;;
19205;SDS011;59358;52.134;5.596;2023-04-03T07:14:54;7.15;;;2.60;;
19205;SDS011;59358;52.134;5.596;2023-04-03T07:17:22;7.05;;;2.60;;
19205;SDS011;59358;52.134;5.596;2023-04-03T07:19:50;6.45;;;2.50;;
19205;SDS011;59358;52.134;5.596;2023-04-03T07:22:17;10.02;;;2.70;;
19205;SDS011;59358;52.134;5.596;2023-04-03T07:24:44;8.43;;;2.85;;
19205;SDS011;59358;52.134;5.596;2023-04-03T07:27:11;3.17;;;2.47;;
19205;SDS011;59358;52.134;5.596;2023-04-03T07:29:38;6.15;;;2.13;;
19205;SDS011;59358;52.134;5.596;2023-04-03T07:32:06;7.60;;;2.15;;
19205;SDS011;59358;52.134;5.596;2023-04-03T07:34:34;8.57;;;3.05;;
19205;SDS011;59358;52.134;5.596;2023-04-03T07:37:01;11.07;;;2.50;;
19205;SDS011;59358;52.134;5.596;2023-04-03T07:39:28;9.18;;;2.35;;
19205;SDS011;59358;52.134;5.596;2023-04-03T07:41:55;6.15;;;3.08;;
19205;SDS011;59358;52.134;5.596;2023-04-03T07:44:22;12.90;;;2.97;;
19205;SDS011;59358;52.134;5.596;2023-04-03T07:46:49;5.10;;;2.22;;
19205;SDS011;59358;52.134;5.596;2023-04-03T07:49:16;12.43;;;3.15;;
19205;SDS011;59358;52.134;5.596;2023-04-03T07:51:45;5.88;;;2.15;;
19205;SDS011;59358;52.134;5.596;2023-04-03T07:54:13;4.72;;;1.70;;
19205;SDS011;59358;52.134;5.596;2023-04-03T07:56:40;5.95;;;1.95;;
19205;SDS011;59358;52.134;5.596;2023-04-03T07:59:08;7.22;;;1.80;;
19205;SDS011;59358;52.134;5.596;2023-04-03T08:01:35;7.70;;;2.08;;
19205;SDS011;59358;52.134;5.596;2023-04-03T08:04:02;2.70;;;1.70;;
19205;SDS011;59358;52.134;5.596;2023-04-03T08:06:30;4.57;;;1.67;;
19205;SDS011;59358;52.134;5.596;2023-04-03T08:09:01;7.32;;;2.20;;
19205;SDS011;59358;52.134;5.596;2023-04-03T08:11:29;4.60;;;1.52;;
19205;SDS011;59358;52.134;5.596;2023-04-03T08:13:56;2.47;;;1.45;;
19205;SDS011;59358;52.134;5.596;2023-04-03T08:16:23;5.30;;;1.85;;
19205;SDS011;59358;52.134;5.596;2023-04-03T08:18:51;4.70;;;1.50;;
19205;SDS011;59358;52.134;5.596;2023-04-03T08:21:19;3.47;;;1.30;;
19205;SDS011;59358;52.134;5.596;2023-04-03T08:23:47;5.10;;;1.65;;
19205;SDS011;59358;52.134;5.596;2023-04-03T08:26:17;4.68;;;1.70;;
19205;SDS011;59358;52.134;5.596;2023-04-03T08:28:45;3.38;;;1.25;;
19205;SDS011;59358;52.134;5.596;2023-04-03T08:31:14;6.25;;;1.50;;
19205;SDS011;59358;52.134;5.596;2023-04-03T08:33:43;5.60;;;2.00;;
19205;SDS011;59358;52.134;5.596;2023-04-03T08:36:17;7.45;;;1.58;;
19205;SDS011;59358;52.134;5.596;2023-04-03T08:38:47;5.13;;;1.50;;
19205;SDS011;59358;52.134;5.596;2023-04-03T08:41:14;3.55;;;1.45;;
19205;SDS011;59358;52.134;5.596;2023-04-03T08:44:01;6.25;;;1.38;;
19205;SDS011;59358;52.134;5.596;2023-04-03T08:46:38;5.75;;;1.45;;
19205;SDS011;59358;52.134;5.596;2023-04-03T08:49:14;5.47;;;2.22;;
19205;SDS011;59358;52.134;5.596;2023-04-03T08:51:48;3.78;;;1.45;;
19205;SDS011;59358;52.134;5.596;2023-04-03T08:54:19;5.05;;;1.27;;
19205;SDS011;59358;52.134;5.596;2023-04-03T08:56:55;3.92;;;1.25;;
19205;SDS011;59358;52.134;5.596;2023-04-03T08:59:25;4.20;;;1.10;;
19205;SDS011;59358;52.134;5.596;2023-04-03T09:01:56;6.13;;;1.50;;
19205;SDS011;59358;52.134;5.596;2023-04-03T09:04:27;14.57;;;2.05;;
19205;SDS011;59358;52.134;5.596;2023-04-03T09:06:57;10.38;;;1.70;;
19205;SDS011;59358;52.134;5.596;2023-04-03T09:09:30;6.07;;;1.25;;
19205;SDS011;59358;52.134;5.596;2023-04-03T09:12:06;1.83;;;0.90;;
19205;SDS011;59358;52.134;5.596;2023-04-03T09:14:42;4.70;;;1.42;;
19205;SDS011;59358;52.134;5.596;2023-04-03T09:17:21;6.00;;;1.45;;
19205;SDS011;59358;52.134;5.596;2023-04-03T09:19:58;2.38;;;0.77;;
19205;SDS011;59358;52.134;5.596;2023-04-03T09:22:33;1.73;;;0.80;;
19205;SDS011;59358;52.134;5.596;2023-04-03T09:25:05;1.63;;;0.68;;
19205;SDS011;59358;52.134;5.596;2023-04-03T09:27:39;4.00;;;1.40;;
19205;SDS011;59358;52.134;5.596;2023-04-03T09:30:08;2.53;;;0.88;;
19205;SDS011;59358;52.134;5.596;2023-04-03T09:32:40;2.55;;;1.20;;
19205;SDS011;59358;52.134;5.596;2023-04-03T09:35:14;4.07;;;1.42;;
19205;SDS011;59358;52.134;5.596;2023-04-03T09:37:45;1.80;;;0.90;;
19205;SDS011;59358;52.134;5.596;2023-04-03T09:40:30;2.13;;;0.85;;
19205;SDS011;59358;52.134;5.596;2023-04-03T09:45:47;7.45;;;1.40;;
19205;SDS011;59358;52.134;5.596;2023-04-03T09:48:18;4.03;;;0.90;;
19205;SDS011;59358;52.134;5.596;2023-04-03T09:50:53;2.08;;;0.70;;
19205;SDS011;59358;52.134;5.596;2023-04-03T09:53:26;1.50;;;0.88;;
19205;SDS011;59358;52.134;5.596;2023-04-03T09:55:55;2.75;;;0.68;;
19205;SDS011;59358;52.134;5.596;2023-04-03T09:58:25;4.90;;;0.80;;
19205;SDS011;59358;52.134;5.596;2023-04-03T10:00:54;3.47;;;1.13;;
19205;SDS011;59358;52.134;5.596;2023-04-03T10:03:23;3.05;;;0.85;;
19205;SDS011;59358;52.134;5.596;2023-04-03T10:05:53;1.52;;;0.70;;
19205;SDS011;59358;52.134;5.596;2023-04-03T10:08:22;3.70;;;0.57;;
19205;SDS011;59358;52.134;5.596;2023-04-03T10:13:52;3.97;;;0.77;;
19205;SDS011;59358;52.134;5.596;2023-04-03T10:16:23;2.67;;;0.80;;
19205;SDS011;59358;52.134;5.596;2023-04-03T10:18:56;0.63;;;0.43;;
19205;SDS011;59358;52.134;5.596;2023-04-03T10:21:40;1.52;;;0.70;;
19205;SDS011;59358;52.134;5.596;2023-04-03T10:24:13;1.60;;;0.70;;
19205;SDS011;59358;52.134;5.596;2023-04-03T10:26:49;4.45;;;0.85;;
19205;SDS011;59358;52.134;5.596;2023-04-03T10:29:39;9.35;;;1.17;;
19205;SDS011;59358;52.134;5.596;2023-04-03T10:32:14;6.38;;;1.08;;
19205;SDS011;59358;52.134;5.596;2023-04-03T10:34:54;2.90;;;1.10;;
19205;SDS011;59358;52.134;5.596;2023-04-03T10:37:29;8.77;;;1.15;;
19205;SDS011;59358;52.134;5.596;2023-04-03T10:40:02;12.38;;;1.20;;
19205;SDS011;59358;52.134;5.596;2023-04-03T10:42:50;6.32;;;1.13;;
19205;SDS011;59358;52.134;5.596;2023-04-03T10:45:26;1.80;;;1.05;;
19205;SDS011;59358;52.134;5.596;2023-04-03T10:48:01;2.85;;;0.75;;
19205;SDS011;59358;52.134;5.596;2023-04-03T10:50:39;3.53;;;0.88;;
19205;SDS011;59358;52.134;5.596;2023-04-03T10:53:14;4.53;;;1.10;;
19205;SDS011;59358;52.134;5.596;2023-04-03T10:55:50;3.15;;;0.95;;
19205;SDS011;59358;52.134;5.596;2023-04-03T10:58:25;4.05;;;0.98;;
19205;SDS011;59358;52.134;5.596;2023-04-03T11:00:57;2.13;;;0.82;;
19205;SDS011;59358;52.134;5.596;2023-04-03T11:03:29;2.63;;;1.20;;
19205;SDS011;59358;52.134;5.596;2023-04-03T11:06:02;7.63;;;1.25;;
19205;SDS011;59358;52.134;5.596;2023-04-03T11:08:33;4.00;;;1.10;;
19205;SDS011;59358;52.134;5.596;2023-04-03T11:11:03;4.97;;;0.98;;
19205;SDS011;59358;52.134;5.596;2023-04-03T11:13:34;5.43;;;1.15;;
19205;SDS011;59358;52.134;5.596;2023-04-03T11:16:07;29.58;;;3.45;;
19205;SDS011;59358;52.134;5.596;2023-04-03T11:18:35;32.28;;;3.88;;
19205;SDS011;59358;52.134;5.596;2023-04-03T11:21:07;3.75;;;1.20;;
19205;SDS011;59358;52.134;5.596;2023-04-03T11:23:38;3.42;;;1.00;;
19205;SDS011;59358;52.134;5.596;2023-04-03T11:26:10;3.78;;;1.20;;
19205;SDS011;59358;52.134;5.596;2023-04-03T11:28:39;8.35;;;1.88;;
19205;SDS011;59358;52.134;5.596;2023-04-03T11:31:22;7.25;;;1.88;;
19205;SDS011;59358;52.134;5.596;2023-04-03T11:34:03;6.20;;;1.25;;
19205;SDS011;59358;52.134;5.596;2023-04-03T11:36:39;6.30;;;1.15;;
19205;SDS011;59358;52.134;5.596;2023-04-03T11:39:16;2.85;;;1.17;;
19205;SDS011;59358;52.134;5.596;2023-04-03T11:41:47;0.95;;;0.70;;
19205;SDS011;59358;52.134;5.596;2023-04-03T11:47:07;1.75;;;1.00;;
19205;SDS011;59358;52.134;5.596;2023-04-03T11:55:44;9.00;;;1.25;;
19205;SDS011;59358;52.134;5.596;2023-04-03T11:58:22;2.03;;;0.93;;
19205;SDS011;59358;52.134;5.596;2023-04-03T12:00:51;2.78;;;1.00;;
19205;SDS011;59358;52.134;5.596;2023-04-03T12:06:43;2.22;;;0.73;;
19205;SDS011;59358;52.134;5.596;2023-04-03T12:12:41;4.18;;;0.98;;
19205;SDS011;59358;52.134;5.596;2023-04-03T12:18:38;1.33;;;1.00;;
19205;SDS011;59358;52.134;5.596;2023-04-03T12:21:11;3.58;;;0.80;;
19205;SDS011;59358;52.134;5.596;2023-04-03T12:26:30;3.60;;;1.15;;
19205;SDS011;59358;52.134;5.596;2023-04-03T12:29:01;4.25;;;1.05;;
19205;SDS011;59358;52.134;5.596;2023-04-03T12:31:37;4.38;;;1.25;;
19205;SDS011;59358;52.134;5.596;2023-04-03T12:34:15;1.25;;;1.10;;
19205;SDS011;59358;52.134;5.596;2023-04-03T12:36:54;1.40;;;0.90;;
19205;SDS011;59358;52.134;5.596;2023-04-03T12:39:44;3.45;;;1.10;;
19205;SDS011;59358;52.134;5.596;2023-04-03T12:45:26;5.30;;;1.17;;
19205;SDS011;59358;52.134;5.596;2023-04-03T12:47:54;2.58;;;1.10;;
19205;SDS011;59358;52.134;5.596;2023-04-03T12:50:22;2.50;;;1.00;;
19205;SDS011;59358;52.134;5.596;2023-04-03T12:53:01;2.22;;;1.05;;
19205;SDS011;59358;52.134;5.596;2023-04-03T12:55:31;2.60;;;1.15;;
19205;SDS011;59358;52.134;5.596;2023-04-03T12:58:12;4.32;;;1.50;;
19205;SDS011;59358;52.134;5.596;2023-04-03T13:00:41;6.95;;;1.20;;
19205;SDS011;59358;52.134;5.596;2023-04-03T13:03:18;6.57;;;1.42;;
19205;SDS011;59358;52.134;5.596;2023-04-03T13:05:49;12.90;;;2.03;;
19205;SDS011;59358;52.134;5.596;2023-04-03T13:08:18;12.10;;;1.90;;
19205;SDS011;59358;52.134;5.596;2023-04-03T13:10:47;4.22;;;1.25;;
19205;SDS011;59358;52.134;5.596;2023-04-03T13:13:19;10.80;;;1.40;;
19205;SDS011;59358;52.134;5.596;2023-04-03T13:15:47;5.32;;;1.10;;
19205;SDS011;59358;52.134;5.596;2023-04-03T13:18:22;16.23;;;2.58;;
19205;SDS011;59358;52.134;5.596;2023-04-03T13:20:57;2.85;;;1.20;;
19205;SDS011;59358;52.134;5.596;2023-04-03T13:23:30;6.80;;;1.40;;
19205;SDS011;59358;52.134;5.596;2023-04-03T13:25:58;1.50;;;1.08;;
19205;SDS011;59358;52.134;5.596;2023-04-03T13:28:30;3.30;;;1.10;;
19205;SDS011;59358;52.134;5.596;2023-04-03T13:30:59;3.58;;;1.25;;
19205;SDS011;59358;52.134;5.596;2023-04-03T13:33:31;1.67;;;1.00;;
19205;SDS011;59358;52.134;5.596;2023-04-03T13:36:03;5.35;;;1.10;;
19205;SDS011;59358;52.134;5.596;2023-04-03T13:38:34;3.60;;;1.25;;
19205;SDS011;59358;52.134;5.596;2023-04-03T13:41:03;4.75;;;1.27;;
19205;SDS011;59358;52.134;5.596;2023-04-03T13:43:33;3.33;;;1.10;;
19205;SDS011;59358;52.134;5.596;2023-04-03T13:46:04;4.85;;;1.10;;
19205;SDS011;59358;52.134;5.596;2023-04-03T13:48:48;3.78;;;1.10;;
19205;SDS011;59358;52.134;5.596;2023-04-03T13:51:18;6.78;;;1.15;;
19205;SDS011;59358;52.134;5.596;2023-04-03T13:53:49;3.78;;;1.35;;
19205;SDS011;59358;52.134;5.596;2023-04-03T13:56:19;26.10;;;2.70;;
19205;SDS011;59358;52.134;5.596;2023-04-03T14:01:49;4.00;;;1.40;;
19205;SDS011;59358;52.134;5.596;2023-04-03T14:04:19;5.10;;;1.25;;
19205;SDS011;59358;52.134;5.596;2023-04-03T14:06:47;4.85;;;1.50;;
19205;SDS011;59358;52.134;5.596;2023-04-03T14:09:16;4.43;;;2.15;;
19205;SDS011;59358;52.134;5.596;2023-04-03T14:11:44;7.80;;;1.80;;
19205;SDS011;59358;52.134;5.596;2023-04-03T14:14:14;5.45;;;1.90;;
19205;SDS011;59358;52.134;5.596;2023-04-03T14:16:43;5.88;;;1.17;;
19205;SDS011;59358;52.134;5.596;2023-04-03T14:19:21;2.95;;;1.10;;
19205;SDS011;59358;52.134;5.596;2023-04-03T14:21:50;4.40;;;2.00;;
19205;SDS011;59358;52.134;5.596;2023-04-03T14:24:20;1.73;;;1.35;;
19205;SDS011;59358;52.134;5.596;2023-04-03T14:26:47;13.60;;;2.25;;
19205;SDS011;59358;52.134;5.596;2023-04-03T14:29:17;6.70;;;1.98;;
19205;SDS011;59358;52.134;5.596;2023-04-03T14:31:45;7.60;;;2.30;;
19205;SDS011;59358;52.134;5.596;2023-04-03T14:34:13;7.25;;;2.00;;
19205;SDS011;59358;52.134;5.596;2023-04-03T14:36:41;5.25;;;1.75;;
19205;SDS011;59358;52.134;5.596;2023-04-03T14:39:10;1.70;;;1.40;;
19205;SDS011;59358;52.134;5.596;2023-04-03T14:41:43;2.15;;;1.63;;
19205;SDS011;59358;52.134;5.596;2023-04-03T14:44:11;3.28;;;1.73;;
19205;SDS011;59358;52.134;5.596;2023-04-03T14:46:38;4.07;;;2.10;;
19205;SDS011;59358;52.134;5.596;2023-04-03T14:49:09;5.13;;;1.65;;
19205;SDS011;59358;52.134;5.596;2023-04-03T14:51:40;4.07;;;1.48;;
19205;SDS011;59358;52.134;5.596;2023-04-03T14:54:10;4.05;;;1.80;;
19205;SDS011;59358;52.134;5.596;2023-04-03T14:56:39;5.25;;;1.77;;
19205;SDS011;59358;52.134;5.596;2023-04-03T14:59:09;4.82;;;1.80;;
19205;SDS011;59358;52.134;5.596;2023-04-03T15:01:37;7.07;;;2.55;;
19205;SDS011;59358;52.134;5.596;2023-04-03T15:04:05;4.28;;;2.10;;
19205;SDS011;59358;52.134;5.596;2023-04-03T15:06:36;15.05;;;2.33;;
19205;SDS011;59358;52.134;5.596;2023-04-03T15:09:03;2.25;;;1.40;;
19205;SDS011;59358;52.134;5.596;2023-04-03T15:11:29;4.28;;;1.60;;
19205;SDS011;59358;52.134;5.596;2023-04-03T15:13:56;3.40;;;1.60;;
19205;SDS011;59358;52.134;5.596;2023-04-03T15:16:24;3.60;;;2.22;;
19205;SDS011;59358;52.134;5.596;2023-04-03T15:18:51;4.05;;;1.75;;
19205;SDS011;59358;52.134;5.596;2023-04-03T15:21:18;3.80;;;1.73;;
19205;SDS011;59358;52.134;5.596;2023-04-03T15:23:45;3.80;;;1.85;;
19205;SDS011;59358;52.134;5.596;2023-04-03T15:26:12;3.08;;;1.60;;
19205;SDS011;59358;52.134;5.596;2023-04-03T15:28:39;4.93;;;1.60;;
19205;SDS011;59358;52.134;5.596;2023-04-03T15:31:09;4.53;;;2.40;;
19205;SDS011;59358;52.134;5.596;2023-04-03T15:33:37;6.32;;;1.70;;
19205;SDS011;59358;52.134;5.596;2023-04-03T15:36:04;4.53;;;1.98;;
19205;SDS011;59358;52.134;5.596;2023-04-03T15:38:31;7.47;;;2.22;;